createdAt,value
2022-12-08T00:01:06.910Z,-0.49
2022-12-08T00:02:10.143Z,-0.48
2022-12-08T00:03:13.241Z,-0.47
2022-12-08T00:04:16.082Z,-0.46
2022-12-08T00:05:37.544Z,-0.44
2022-12-08T00:07:01.323Z,-0.46
2022-12-08T00:08:23.230Z,-0.50
2022-12-08T00:09:39.166Z,-0.48
2022-12-08T00:10:49.764Z,-0.44
2022-12-08T00:11:57.974Z,-0.45
2022-12-08T00:13:00.672Z,-0.51
2022-12-08T00:14:03.635Z,-0.53
2022-12-08T00:15:07.029Z,-0.57
2022-12-08T00:16:10.136Z,-0.63
2022-12-08T00:17:15.182Z,-0.60
2022-12-08T00:18:17.865Z,-0.65
2022-12-08T00:19:21.642Z,-0.62
2022-12-08T00:20:24.183Z,-0.65
2022-12-08T00:21:26.791Z,-0.71
2022-12-08T00:22:29.655Z,-0.72
2022-12-08T00:23:32.306Z,-0.72
2022-12-08T00:24:39.619Z,-0.76
2022-12-08T00:25:42.300Z,-0.77
2022-12-08T00:26:45.328Z,-0.78
2022-12-08T00:27:47.980Z,-0.84
2022-12-08T00:28:51.047Z,-0.92
2022-12-08T00:29:53.918Z,-0.91
2022-12-08T00:30:56.613Z,-0.92
2022-12-08T00:31:59.326Z,-0.94
2022-12-08T00:33:02.297Z,-0.95
2022-12-08T00:34:05.439Z,-0.95
2022-12-08T00:35:08.759Z,-0.97
2022-12-08T00:36:14.205Z,-0.95
2022-12-08T00:37:16.806Z,-0.95
2022-12-08T00:38:19.480Z,-0.98
2022-12-08T00:39:22.044Z,-1.02
2022-12-08T00:40:24.935Z,-1.05
2022-12-08T00:41:46.889Z,-1.05
2022-12-08T00:42:49.478Z,-1.13
2022-12-08T00:43:52.125Z,-1.15
2022-12-08T00:44:54.832Z,-1.16
2022-12-08T00:45:57.805Z,-1.19
2022-12-08T00:47:00.539Z,-1.21
2022-12-08T00:48:03.235Z,-1.27
2022-12-08T00:49:06.288Z,-1.26
2022-12-08T00:50:09.439Z,-1.25
2022-12-08T00:51:12.338Z,-1.24
2022-12-08T00:52:15.025Z,-1.24
2022-12-08T00:53:17.678Z,-1.23
2022-12-08T00:54:20.448Z,-1.23
2022-12-08T00:55:23.788Z,-1.19
2022-12-08T00:56:27.109Z,-1.27
2022-12-08T00:57:29.815Z,-1.27
2022-12-08T00:58:32.413Z,-1.22
2022-12-08T00:59:35.069Z,-1.23
2022-12-08T01:00:40.738Z,-1.20
2022-12-08T01:01:45.636Z,-1.20
2022-12-08T01:02:48.470Z,-1.20
2022-12-08T01:03:51.352Z,-1.19
2022-12-08T01:04:54.108Z,-1.23
2022-12-08T01:05:56.698Z,-1.22
2022-12-08T01:06:59.636Z,-1.21
2022-12-08T01:08:02.350Z,-1.23
2022-12-08T01:09:08.159Z,-1.23
2022-12-08T01:10:10.789Z,-1.18
2022-12-08T01:11:17.047Z,-1.16
2022-12-08T01:12:19.955Z,-1.17
2022-12-08T01:13:22.757Z,-1.19
2022-12-08T01:14:25.777Z,-1.21
2022-12-08T01:15:28.582Z,-1.19
2022-12-08T01:16:34.277Z,-1.16
2022-12-08T01:17:38.103Z,-1.17
2022-12-08T01:18:40.855Z,-1.18
2022-12-08T01:19:43.600Z,-1.20
2022-12-08T01:20:46.663Z,-1.21
2022-12-08T01:21:49.357Z,-1.20
2022-12-08T01:22:52.299Z,-1.19
2022-12-08T01:23:55.083Z,-1.18
2022-12-08T01:24:57.735Z,-1.21
2022-12-08T01:26:07.918Z,-1.19
2022-12-08T01:27:10.604Z,-1.21
2022-12-08T01:28:13.672Z,-1.23
2022-12-08T01:29:16.707Z,-1.20
2022-12-08T01:30:20.214Z,-1.24
2022-12-08T01:31:23.700Z,-1.21
2022-12-08T01:32:26.656Z,-1.27
2022-12-08T01:33:29.843Z,-1.23
2022-12-08T01:34:32.470Z,-1.21
2022-12-08T01:35:35.106Z,-1.22
2022-12-08T01:36:38.567Z,-1.22
2022-12-08T01:37:41.344Z,-1.24
2022-12-08T01:38:44.334Z,-1.23
2022-12-08T01:39:47.324Z,-1.29
2022-12-08T01:40:50.031Z,-1.39
2022-12-08T01:41:52.705Z,-1.41
2022-12-08T01:42:55.392Z,-1.42
2022-12-08T01:44:08.370Z,-1.46
2022-12-08T01:45:33.281Z,-1.47
2022-12-08T01:46:38.240Z,-1.43
2022-12-08T01:47:49.993Z,-1.42
2022-12-08T01:48:58.683Z,-1.34
2022-12-08T01:50:03.232Z,-1.40
2022-12-08T01:51:07.134Z,-1.31
2022-12-08T01:52:26.847Z,-1.28
2022-12-08T01:53:35.587Z,-1.21
2022-12-08T01:55:02.101Z,-1.19
2022-12-08T01:56:15.295Z,-1.27
2022-12-08T01:57:27.031Z,-1.25
2022-12-08T01:58:34.947Z,-1.26
2022-12-08T01:59:46.913Z,-1.25
2022-12-08T02:00:51.560Z,-1.21
2022-12-08T02:01:54.984Z,-1.25
2022-12-08T02:03:00.935Z,-1.32
2022-12-08T02:04:07.100Z,-1.23
2022-12-08T02:05:10.006Z,-1.20
2022-12-08T02:06:13.461Z,-1.20
2022-12-08T02:07:17.718Z,-1.32
2022-12-08T02:08:20.816Z,-1.23
2022-12-08T02:09:24.644Z,-1.19
2022-12-08T02:10:30.758Z,-1.19
2022-12-08T02:11:33.330Z,-1.20
2022-12-08T02:12:36.568Z,-1.16
2022-12-08T02:13:41.867Z,-1.20
2022-12-08T02:14:44.454Z,-1.20
2022-12-08T02:16:28.991Z,-1.16
2022-12-08T02:17:37.149Z,-1.14
2022-12-08T02:19:33.870Z,-1.10
2022-12-08T02:20:48.968Z,-1.08
2022-12-08T02:22:07.052Z,-1.02
2022-12-08T02:23:15.893Z,-1.03
2022-12-08T02:24:46.332Z,-1.03
2022-12-08T02:26:26.492Z,-1.04
2022-12-08T02:27:54.778Z,-1.06
2022-12-08T02:29:16.215Z,-1.10
2022-12-08T02:30:22.045Z,-1.16
2022-12-08T02:31:52.683Z,-1.23
2022-12-08T02:33:13.966Z,-1.20
2022-12-08T02:34:35.823Z,-1.18
2022-12-08T02:36:05.190Z,-1.20
2022-12-08T02:37:41.349Z,-1.19
2022-12-08T02:38:43.913Z,-1.21
2022-12-08T02:40:02.600Z,-1.24
2022-12-08T02:41:28.902Z,-1.27
2022-12-08T02:42:52.633Z,-1.26
2022-12-08T02:43:59.538Z,-1.25
2022-12-08T02:45:17.598Z,-1.28
2022-12-08T02:46:35.949Z,-1.32
2022-12-08T02:47:39.837Z,-1.31
2022-12-08T02:48:42.821Z,-1.31
2022-12-08T02:49:45.545Z,-1.27
2022-12-08T02:50:48.245Z,-1.26
2022-12-08T02:51:51.155Z,-1.26
2022-12-08T02:52:54.368Z,-1.23
2022-12-08T02:53:57.274Z,-1.28
2022-12-08T02:55:09.483Z,-1.28
2022-12-08T02:56:12.022Z,-1.25
2022-12-08T02:57:46.050Z,-1.26
2022-12-08T02:59:04.603Z,-1.23
2022-12-08T03:00:10.416Z,-1.26
2022-12-08T03:01:25.086Z,-1.29
2022-12-08T03:02:48.466Z,-1.26
2022-12-08T03:03:51.074Z,-1.24
2022-12-08T03:05:02.431Z,-1.28
2022-12-08T03:06:10.942Z,-1.27
2022-12-08T03:07:35.765Z,-1.27
2022-12-08T03:08:53.869Z,-1.37
2022-12-08T03:09:59.458Z,-1.31
2022-12-08T03:11:25.711Z,-1.34
2022-12-08T03:12:37.637Z,-1.34
2022-12-08T03:13:56.353Z,-1.47
2022-12-08T03:15:10.848Z,-1.57
2022-12-08T03:16:17.714Z,-1.49
2022-12-08T03:17:24.717Z,-1.47
2022-12-08T03:18:33.126Z,-1.50
2022-12-08T03:19:41.974Z,-1.50
2022-12-08T03:20:47.716Z,-1.54
2022-12-08T03:21:54.312Z,-1.73
2022-12-08T03:23:00.277Z,-1.63
2022-12-08T03:24:06.778Z,-1.66
2022-12-08T03:25:14.907Z,-1.62
2022-12-08T03:26:25.430Z,-1.56
2022-12-08T03:27:30.226Z,-1.52
2022-12-08T03:28:33.614Z,-1.49
2022-12-08T03:29:36.640Z,-1.49
2022-12-08T03:30:43.009Z,-1.48
2022-12-08T03:31:56.891Z,-1.54
2022-12-08T03:33:09.731Z,-1.50
2022-12-08T03:34:14.196Z,-1.50
2022-12-08T03:35:22.790Z,-1.49
2022-12-08T03:36:26.079Z,-1.51
2022-12-08T03:37:29.401Z,-1.50
2022-12-08T03:38:40.642Z,-1.66
2022-12-08T03:39:43.316Z,-1.66
2022-12-08T03:41:06.450Z,-1.65
2022-12-08T03:42:09.427Z,-1.68
2022-12-08T03:43:12.463Z,-1.70
2022-12-08T03:44:15.070Z,-1.66
2022-12-08T03:45:17.679Z,-1.64
2022-12-08T03:47:24.343Z,-1.60
2022-12-08T03:48:27.127Z,-1.63
2022-12-08T03:49:29.739Z,-1.66
2022-12-08T03:50:32.551Z,-1.75
2022-12-08T03:51:35.181Z,-1.72
2022-12-08T03:52:38.101Z,-1.77
2022-12-08T03:53:40.759Z,-1.73
2022-12-08T03:54:43.323Z,-1.73
2022-12-08T03:55:45.955Z,-1.75
2022-12-08T03:56:48.580Z,-1.73
2022-12-08T03:57:51.454Z,-1.76
2022-12-08T03:58:54.982Z,-1.79
2022-12-08T03:59:57.690Z,-1.79
2022-12-08T04:01:00.268Z,-1.79
2022-12-08T04:02:03.246Z,-1.81
2022-12-08T04:03:06.540Z,-1.81
2022-12-08T04:04:09.354Z,-1.84
2022-12-08T04:05:11.980Z,-1.84
2022-12-08T04:06:15.072Z,-1.84
2022-12-08T04:07:18.266Z,-1.84
2022-12-08T04:08:21.168Z,-1.87
2022-12-08T04:09:23.944Z,-1.90
2022-12-08T04:10:26.575Z,-1.89
2022-12-08T04:11:29.206Z,-1.90
2022-12-08T04:12:32.249Z,-1.90
2022-12-08T04:13:36.154Z,-1.90
2022-12-08T04:14:38.820Z,-1.90
2022-12-08T04:15:45.742Z,-1.87
2022-12-08T04:16:48.969Z,-1.90
2022-12-08T04:17:51.916Z,-1.94
2022-12-08T04:18:54.900Z,-1.96
2022-12-08T04:19:57.524Z,-1.96
2022-12-08T04:21:00.175Z,-1.96
2022-12-08T04:22:02.818Z,-1.92
2022-12-08T04:23:05.724Z,-1.97
2022-12-08T04:24:09.512Z,-2.02
2022-12-08T04:25:12.135Z,-2.00
2022-12-08T04:26:14.979Z,-2.07
2022-12-08T04:27:17.662Z,-2.01
2022-12-08T04:28:21.834Z,-2.04
2022-12-08T04:29:24.602Z,-2.04
2022-12-08T04:30:27.315Z,-2.07
2022-12-08T04:31:29.939Z,-2.07
2022-12-08T04:32:32.942Z,-2.02
2022-12-08T04:33:35.890Z,-2.08
2022-12-08T04:34:38.550Z,-2.12
2022-12-08T04:35:41.375Z,-2.15
2022-12-08T04:36:44.058Z,-2.24
2022-12-08T04:37:47.005Z,-2.28
2022-12-08T04:38:50.665Z,-2.33
2022-12-08T04:39:53.285Z,-2.35
2022-12-08T04:40:55.884Z,-2.36
2022-12-08T04:41:58.637Z,-2.37
2022-12-08T04:43:01.237Z,-2.36
2022-12-08T04:44:04.281Z,-2.36
2022-12-08T04:45:07.682Z,-2.38
2022-12-08T04:46:11.065Z,-2.40
2022-12-08T04:47:13.764Z,-2.43
2022-12-08T04:48:16.958Z,-2.38
2022-12-08T04:49:19.932Z,-2.37
2022-12-08T04:50:22.615Z,-2.43
2022-12-08T04:51:25.285Z,-2.41
2022-12-08T04:52:27.928Z,-2.39
2022-12-08T04:53:30.573Z,-2.33
2022-12-08T04:54:33.622Z,-2.32
2022-12-08T04:55:40.461Z,-2.32
2022-12-08T04:56:43.140Z,-2.30
2022-12-08T04:57:46.484Z,-2.29
2022-12-08T04:58:49.274Z,-2.26
2022-12-08T04:59:52.158Z,-2.30
2022-12-08T05:00:54.869Z,-2.30
2022-12-08T05:01:57.733Z,-2.30
2022-12-08T05:03:00.943Z,-2.32
2022-12-08T05:04:03.809Z,-2.41
2022-12-08T05:05:07.153Z,-2.41
2022-12-08T05:06:13.198Z,-2.40
2022-12-08T05:07:16.082Z,-2.38
2022-12-08T05:08:18.880Z,-2.43
2022-12-08T05:09:21.558Z,-2.49
2022-12-08T05:10:24.551Z,-2.46
2022-12-08T05:11:27.150Z,-2.45
2022-12-08T05:12:29.819Z,-2.44
2022-12-08T05:13:32.979Z,-2.38
2022-12-08T05:14:35.634Z,-2.35
2022-12-08T05:15:38.607Z,-2.33
2022-12-08T05:16:41.977Z,-2.31
2022-12-08T05:17:45.272Z,-2.33
2022-12-08T05:18:47.967Z,-2.37
2022-12-08T05:19:50.629Z,-2.38
2022-12-08T05:20:53.545Z,-2.41
2022-12-08T05:21:56.209Z,-2.46
2022-12-08T05:22:58.792Z,-2.46
2022-12-08T05:24:01.471Z,-2.46
2022-12-08T05:25:04.487Z,-2.41
2022-12-08T05:26:07.861Z,-2.50
2022-12-08T05:27:10.745Z,-2.48
2022-12-08T05:28:40.111Z,-2.48
2022-12-08T05:29:37.419Z,-2.37
2022-12-08T05:30:40.629Z,-2.35
2022-12-08T05:31:43.941Z,-2.49
2022-12-08T05:32:46.565Z,-2.31
2022-12-08T05:33:50.652Z,-2.30
2022-12-08T05:34:53.599Z,-2.34
2022-12-08T05:35:56.215Z,-2.31
2022-12-08T05:36:59.309Z,-2.35
2022-12-08T05:38:02.498Z,-2.36
2022-12-08T05:39:05.152Z,-2.29
2022-12-08T05:40:08.517Z,-2.32
2022-12-08T05:41:21.309Z,-2.27
2022-12-08T05:42:25.062Z,-2.29
2022-12-08T05:43:27.943Z,-2.29
2022-12-08T05:44:30.603Z,-2.32
2022-12-08T05:45:33.637Z,-2.37
2022-12-08T05:46:37.806Z,-2.33
2022-12-08T05:47:40.984Z,-2.34
2022-12-08T05:48:43.637Z,-2.33
2022-12-08T05:49:46.552Z,-2.31
2022-12-08T05:50:53.334Z,-2.41
2022-12-08T05:51:56.005Z,-2.41
2022-12-08T05:53:02.250Z,-2.31
2022-12-08T05:54:04.958Z,-2.30
2022-12-08T05:55:08.140Z,-2.29
2022-12-08T05:56:12.303Z,-2.22
2022-12-08T05:57:15.292Z,-2.27
2022-12-08T05:58:22.951Z,-2.31
2022-12-08T05:59:25.593Z,-2.28
2022-12-08T06:00:28.271Z,-2.27
2022-12-08T06:01:32.080Z,-2.21
2022-12-08T06:02:35.943Z,-2.21
2022-12-08T06:03:38.799Z,-2.14
2022-12-08T06:04:41.788Z,-2.17
2022-12-08T06:05:46.232Z,-2.18
2022-12-08T06:06:50.005Z,-2.21
2022-12-08T06:07:52.657Z,-2.23
2022-12-08T06:08:55.361Z,-2.13
2022-12-08T06:09:58.247Z,-2.19
2022-12-08T06:11:00.994Z,-2.09
2022-12-08T06:12:04.157Z,-2.07
2022-12-08T06:13:06.719Z,-2.13
2022-12-08T06:14:12.658Z,-2.19
2022-12-08T06:15:15.388Z,-2.06
2022-12-08T06:16:19.022Z,-2.03
2022-12-08T06:17:22.343Z,-1.99
2022-12-08T06:18:29.653Z,-2.00
2022-12-08T06:19:35.693Z,-1.97
2022-12-08T06:20:38.456Z,-1.94
2022-12-08T06:21:41.119Z,-1.91
2022-12-08T06:22:44.055Z,-1.90
2022-12-08T06:23:53.957Z,-1.87
2022-12-08T06:24:56.570Z,-1.85
2022-12-08T06:26:07.303Z,-1.85
2022-12-08T06:27:09.984Z,-1.82
2022-12-08T06:28:13.119Z,-1.76
2022-12-08T06:29:15.840Z,-1.82
2022-12-08T06:30:18.779Z,-1.83
2022-12-08T06:31:25.894Z,-1.83
2022-12-08T06:32:28.665Z,-1.83
2022-12-08T06:33:31.590Z,-1.74
2022-12-08T06:34:34.295Z,-1.71
2022-12-08T06:35:37.414Z,-1.66
2022-12-08T06:36:40.118Z,-1.65
2022-12-08T06:37:43.383Z,-1.62
2022-12-08T06:38:46.760Z,-1.56
2022-12-08T06:39:49.461Z,-1.55
2022-12-08T06:40:56.056Z,-1.50
2022-12-08T06:42:17.227Z,-1.47
2022-12-08T06:43:19.826Z,-1.45
2022-12-08T06:44:22.881Z,-1.44
2022-12-08T06:45:25.542Z,-1.43
2022-12-08T06:46:28.224Z,-1.45
2022-12-08T06:47:31.105Z,-1.47
2022-12-08T06:48:34.804Z,-1.46
2022-12-08T06:49:37.778Z,-1.48
2022-12-08T06:50:40.491Z,-1.48
2022-12-08T06:51:43.164Z,-1.45
2022-12-08T06:52:58.244Z,-1.42
2022-12-08T06:54:05.639Z,-1.34
2022-12-08T06:55:09.381Z,-1.29
2022-12-08T06:56:13.094Z,-1.28
2022-12-08T06:57:15.823Z,-1.24
2022-12-08T06:58:18.936Z,-1.19
2022-12-08T06:59:21.767Z,-1.16
2022-12-08T07:00:25.923Z,-1.16
2022-12-08T07:01:28.712Z,-1.16
2022-12-08T07:02:31.841Z,-1.16
2022-12-08T07:03:35.169Z,-1.13
2022-12-08T07:04:37.884Z,-1.12
2022-12-08T07:05:40.922Z,-1.09
2022-12-08T07:06:43.884Z,-1.08
2022-12-08T07:07:46.600Z,-1.09
2022-12-08T07:08:49.640Z,-1.12
2022-12-08T07:09:52.413Z,-1.13
2022-12-08T07:10:55.469Z,-1.11
2022-12-08T07:11:58.215Z,-1.10
2022-12-08T07:13:00.885Z,-1.11
2022-12-08T07:14:03.606Z,-1.07
2022-12-08T07:15:07.235Z,-1.05
2022-12-08T07:16:12.148Z,-1.07
2022-12-08T07:17:15.689Z,-1.09
2022-12-08T07:18:18.453Z,-1.05
2022-12-08T07:19:21.853Z,-1.04
2022-12-08T07:20:29.899Z,-1.03
2022-12-08T07:21:39.638Z,-1.05
2022-12-08T07:22:47.747Z,-1.00
2022-12-08T07:23:55.923Z,-0.97
2022-12-08T07:25:00.099Z,-0.97
2022-12-08T07:26:06.233Z,-0.93
2022-12-08T07:27:09.141Z,-0.94
2022-12-08T07:28:12.067Z,-0.89
2022-12-08T07:29:14.721Z,-0.86
2022-12-08T07:30:17.739Z,-0.86
2022-12-08T07:31:23.861Z,-0.86
2022-12-08T07:32:30.037Z,-0.84
2022-12-08T07:33:33.987Z,-0.83
2022-12-08T07:34:36.845Z,-0.77
2022-12-08T07:35:40.570Z,-0.75
2022-12-08T07:36:45.606Z,-0.72
2022-12-08T07:37:48.605Z,-0.71
2022-12-08T07:38:53.362Z,-0.67
2022-12-08T07:39:55.949Z,-0.60
2022-12-08T07:40:58.937Z,-0.57
2022-12-08T07:42:01.647Z,-0.49
2022-12-08T07:43:04.568Z,-0.50
2022-12-08T07:44:07.348Z,-0.45
2022-12-08T07:45:10.222Z,-0.37
2022-12-08T07:46:14.413Z,-0.32
2022-12-08T07:47:17.475Z,-0.25
2022-12-08T07:48:20.650Z,-0.17
2022-12-08T07:49:23.484Z,-0.08
2022-12-08T07:50:33.895Z,-0.07
2022-12-08T07:51:36.993Z,-0.05
2022-12-08T07:52:39.614Z,-0.02
2022-12-08T07:53:48.399Z,0.02
2022-12-08T07:54:54.409Z,0.04
2022-12-08T07:56:06.900Z,0.04
2022-12-08T07:57:09.934Z,0.08
2022-12-08T07:58:12.661Z,0.10
2022-12-08T07:59:15.705Z,0.11
2022-12-08T08:00:37.908Z,0.09
2022-12-08T08:01:45.128Z,0.10
2022-12-08T08:02:48.246Z,0.12
2022-12-08T08:03:51.130Z,0.11
2022-12-08T08:05:00.700Z,0.11
2022-12-08T08:06:04.582Z,0.21
2022-12-08T08:07:07.522Z,0.25
2022-12-08T08:08:11.334Z,0.30
2022-12-08T08:09:14.015Z,0.29
2022-12-08T08:10:23.836Z,0.31
2022-12-08T08:11:26.868Z,0.34
2022-12-08T08:12:31.856Z,0.38
2022-12-08T08:13:35.476Z,0.42
2022-12-08T08:14:38.136Z,0.47
2022-12-08T08:15:47.681Z,0.20
2022-12-08T08:16:50.478Z,0.45
2022-12-08T08:17:53.727Z,0.42
2022-12-08T08:18:56.464Z,0.43
2022-12-08T08:20:49.281Z,0.48
2022-12-08T08:21:51.907Z,0.46
2022-12-08T08:22:54.957Z,0.44
2022-12-08T08:23:57.558Z,0.49
2022-12-08T08:25:00.191Z,0.56
2022-12-08T08:26:09.650Z,0.59
2022-12-08T08:27:12.694Z,0.57
2022-12-08T08:28:15.707Z,0.56
2022-12-08T08:29:18.422Z,0.59
2022-12-08T08:31:12.148Z,0.60
2022-12-08T08:32:14.895Z,0.66
2022-12-08T08:33:17.848Z,0.64
2022-12-08T08:34:20.490Z,0.66
2022-12-08T08:36:13.340Z,0.65
2022-12-08T08:37:15.928Z,0.67
2022-12-08T08:38:19.033Z,0.68
2022-12-08T08:39:21.735Z,0.68
2022-12-08T08:41:18.409Z,0.70
2022-12-08T08:42:27.601Z,0.75
2022-12-08T08:43:37.594Z,0.84
2022-12-08T08:44:40.924Z,0.87
2022-12-08T08:46:58.947Z,0.85
2022-12-08T08:48:01.818Z,0.90
2022-12-08T08:49:04.840Z,0.87
2022-12-08T08:50:08.175Z,0.85
2022-12-08T08:51:13.391Z,0.83
2022-12-08T08:52:16.046Z,0.87
2022-12-08T08:53:25.711Z,0.86
2022-12-08T08:54:30.004Z,0.81
2022-12-08T08:55:32.625Z,0.53
2022-12-08T08:56:35.511Z,0.81
2022-12-08T08:57:38.152Z,0.81
2022-12-08T08:58:41.577Z,0.80
2022-12-08T08:59:44.540Z,0.76
2022-12-08T09:00:47.206Z,0.74
2022-12-08T09:01:50.028Z,0.78
2022-12-08T09:02:52.912Z,0.81
2022-12-08T09:03:56.612Z,0.87
2022-12-08T09:04:59.881Z,0.89
2022-12-08T09:06:02.684Z,0.92
2022-12-08T09:07:05.342Z,0.90
2022-12-08T09:08:08.390Z,0.93
2022-12-08T09:09:11.557Z,0.96
2022-12-08T09:10:14.872Z,1.00
2022-12-08T09:11:18.780Z,0.99
2022-12-08T09:12:21.781Z,1.00
2022-12-08T09:13:24.513Z,1.01
2022-12-08T09:14:27.956Z,1.03
2022-12-08T09:15:31.179Z,1.04
2022-12-08T14:21:20.449Z,1.20
2022-12-08T14:22:25.014Z,1.20
2022-12-08T14:23:28.073Z,1.19
2022-12-08T14:24:32.216Z,1.18
2022-12-08T14:25:35.918Z,1.17
2022-12-08T14:26:38.766Z,1.16
2022-12-08T14:27:43.655Z,1.12
2022-12-08T14:28:46.357Z,1.10
2022-12-08T14:29:52.541Z,1.11
2022-12-08T14:30:55.957Z,1.11
2022-12-08T14:31:58.620Z,1.08
2022-12-08T14:33:04.236Z,1.09
2022-12-08T14:34:06.901Z,1.07
2022-12-08T14:35:09.501Z,1.08
2022-12-08T14:36:15.925Z,1.08
2022-12-08T14:37:18.689Z,1.10
2022-12-08T14:38:24.715Z,1.11
2022-12-08T14:39:27.642Z,1.10
2022-12-08T14:40:40.019Z,1.08
2022-12-08T14:41:59.991Z,1.10
2022-12-08T14:43:13.633Z,1.11
2022-12-08T14:44:23.990Z,1.12
2022-12-08T14:45:26.994Z,1.10
2022-12-08T14:46:29.992Z,1.09
2022-12-08T14:47:34.758Z,1.11
2022-12-08T14:48:37.374Z,1.12
2022-12-08T14:49:40.723Z,1.12
2022-12-08T14:50:55.486Z,1.14
2022-12-08T14:51:59.544Z,1.13
2022-12-08T14:53:02.755Z,1.13
2022-12-08T14:54:13.909Z,1.12
2022-12-08T14:55:17.158Z,1.14
2022-12-08T14:56:51.791Z,1.12
2022-12-08T14:57:55.073Z,1.13
2022-12-08T14:59:23.102Z,1.13
2022-12-08T15:00:27.378Z,1.12
2022-12-08T15:01:30.640Z,1.12
2022-12-08T15:02:33.581Z,1.10
2022-12-08T15:03:36.897Z,1.09
2022-12-08T15:04:44.667Z,1.12
2022-12-08T15:05:52.384Z,1.08
2022-12-08T15:07:07.407Z,1.13
2022-12-08T15:08:13.192Z,1.13
2022-12-08T15:09:41.118Z,1.10
2022-12-08T15:10:48.241Z,1.17
2022-12-08T15:12:26.180Z,1.19
2022-12-08T15:13:30.352Z,1.18
2022-12-08T15:14:36.123Z,1.17
2022-12-08T15:15:58.367Z,1.16
2022-12-08T15:17:01.911Z,1.13
2022-12-08T15:18:35.356Z,1.12
2022-12-08T15:19:38.072Z,1.13
2022-12-08T15:20:44.169Z,1.13
2022-12-08T15:21:47.650Z,1.16
2022-12-08T15:22:50.963Z,1.14
2022-12-08T15:23:53.649Z,1.07
2022-12-08T15:24:57.198Z,1.13
2022-12-08T15:26:00.219Z,1.13
2022-12-08T15:27:04.026Z,1.09
2022-12-08T15:28:06.951Z,1.13
2022-12-08T15:29:30.837Z,1.14
2022-12-08T15:30:34.448Z,1.17
2022-12-08T15:31:37.302Z,1.16
2022-12-08T15:32:40.010Z,1.16
2022-12-08T15:33:43.000Z,1.18
2022-12-08T15:34:47.167Z,1.17
2022-12-08T15:35:50.752Z,1.09
2022-12-08T15:36:54.876Z,1.11
2022-12-08T15:37:57.624Z,1.14
2022-12-08T15:39:00.907Z,1.15
2022-12-08T15:40:16.100Z,1.17
2022-12-08T15:41:18.686Z,1.17
2022-12-08T15:42:21.350Z,1.17
2022-12-08T15:43:24.205Z,1.16
2022-12-08T15:44:27.613Z,1.16
2022-12-08T15:45:32.657Z,1.16
2022-12-08T15:46:48.823Z,1.11
2022-12-08T15:47:52.631Z,1.08
2022-12-08T15:48:58.258Z,1.19
2022-12-08T15:50:04.744Z,1.19
2022-12-08T15:51:07.928Z,1.17
2022-12-08T15:52:14.746Z,1.16
2022-12-08T15:53:17.467Z,1.17
2022-12-08T15:54:20.423Z,1.16
2022-12-08T15:55:23.570Z,1.18
2022-12-08T15:56:27.764Z,1.16
2022-12-08T15:58:57.206Z,1.18
2022-12-08T16:00:00.169Z,1.18
2022-12-08T16:01:03.681Z,1.20
2022-12-08T16:02:06.787Z,1.20
2022-12-08T16:03:51.582Z,1.21
2022-12-08T16:07:30.245Z,1.20
2022-12-08T16:08:56.146Z,1.17
2022-12-08T16:09:56.877Z,1.18
2022-12-08T16:11:56.603Z,1.16
2022-12-08T16:13:55.592Z,1.17
2022-12-08T16:15:23.769Z,1.16
2022-12-08T16:15:59.825Z,1.17
2022-12-08T16:17:03.148Z,1.17
2022-12-08T16:18:06.946Z,1.17
2022-12-08T16:19:14.483Z,1.18
2022-12-08T16:20:18.238Z,1.19
2022-12-08T16:21:53.499Z,1.18
2022-12-08T16:22:56.422Z,1.18
2022-12-08T16:24:08.901Z,1.18
2022-12-08T16:25:18.784Z,1.19
2022-12-08T16:27:13.875Z,1.21
2022-12-08T16:28:01.172Z,1.17
2022-12-08T16:29:07.059Z,1.21
2022-12-08T16:30:15.596Z,1.17
2022-12-08T16:31:22.792Z,1.20
2022-12-08T16:32:26.802Z,1.19
2022-12-08T16:33:29.613Z,1.19
2022-12-08T16:34:32.677Z,1.22
2022-12-08T16:35:35.857Z,1.21
2022-12-08T16:36:38.794Z,1.19
2022-12-08T16:37:41.774Z,1.20
2022-12-08T16:38:45.048Z,1.17
2022-12-08T16:39:50.357Z,1.17
2022-12-08T16:41:11.935Z,1.16
2022-12-08T16:42:34.231Z,1.13
2022-12-08T16:43:36.861Z,1.08
2022-12-08T16:44:42.451Z,1.11
2022-12-08T16:45:46.097Z,1.10
2022-12-08T16:46:49.180Z,1.07
2022-12-08T16:47:55.043Z,1.05
2022-12-08T16:48:59.179Z,0.97
2022-12-08T16:50:15.309Z,1.02
2022-12-08T16:51:25.106Z,1.06
2022-12-08T16:52:30.459Z,1.06
2022-12-08T16:53:33.203Z,1.07
2022-12-08T16:54:36.022Z,1.07
2022-12-08T16:55:39.547Z,1.07
2022-12-08T16:56:43.323Z,1.07
2022-12-08T16:57:47.893Z,1.08
2022-12-08T16:58:50.641Z,1.07
2022-12-08T16:59:53.536Z,1.07
2022-12-08T17:00:56.854Z,1.05
2022-12-08T17:02:00.325Z,1.01
2022-12-08T17:03:04.912Z,1.05
2022-12-08T17:04:30.329Z,1.07
2022-12-08T17:05:31.266Z,1.04
2022-12-08T17:06:34.130Z,1.07
2022-12-08T17:07:37.274Z,1.06
2022-12-08T17:08:42.287Z,1.06
2022-12-08T17:09:45.566Z,1.07
2022-12-08T17:11:07.566Z,1.08
2022-12-08T17:12:10.745Z,1.12
2022-12-08T17:13:17.220Z,1.10
2022-12-08T17:14:20.013Z,1.11
2022-12-08T17:15:25.942Z,1.11
2022-12-08T17:16:28.923Z,1.11
2022-12-08T17:17:34.800Z,1.11
2022-12-08T17:18:38.812Z,1.11
2022-12-08T17:19:41.642Z,1.12
2022-12-08T17:20:45.061Z,1.13
2022-12-08T17:21:48.297Z,1.13
2022-12-08T17:22:55.656Z,1.14
2022-12-08T17:23:58.670Z,1.16
2022-12-08T17:25:02.940Z,1.14
2022-12-08T17:26:07.320Z,1.14
2022-12-08T17:27:10.095Z,1.16
2022-12-08T17:28:26.485Z,1.16
2022-12-08T17:29:39.648Z,1.16
2022-12-08T17:30:42.873Z,1.17
2022-12-08T17:31:46.024Z,1.13
2022-12-08T17:32:49.845Z,1.12
2022-12-08T17:33:54.724Z,1.11
2022-12-08T17:34:58.147Z,1.16
2022-12-08T17:36:01.178Z,1.14
2022-12-08T17:37:03.988Z,1.14
2022-12-08T17:38:06.720Z,1.14
2022-12-08T17:39:14.963Z,1.16
2022-12-08T17:40:22.887Z,1.16
2022-12-08T17:41:28.303Z,1.16
2022-12-08T17:42:32.609Z,1.18
2022-12-08T17:43:36.348Z,1.19
2022-12-08T17:44:39.903Z,1.18
2022-12-08T17:45:46.622Z,1.20
2022-12-08T17:46:52.900Z,1.22
2022-12-08T17:48:02.459Z,1.21
2022-12-08T17:49:10.716Z,1.23
2022-12-08T17:50:13.728Z,1.23
2022-12-08T17:51:18.234Z,1.23
2022-12-08T17:52:21.093Z,1.25
2022-12-08T17:53:24.060Z,1.26
2022-12-08T17:54:27.895Z,1.23
2022-12-08T17:55:32.196Z,1.27
2022-12-08T17:56:40.784Z,1.28
2022-12-08T17:57:44.087Z,1.31
2022-12-08T17:58:51.284Z,1.31
2022-12-08T17:59:57.147Z,1.33
2022-12-08T18:01:00.851Z,1.33
2022-12-08T18:02:04.706Z,1.33
2022-12-08T18:03:09.178Z,1.34
2022-12-08T18:04:14.148Z,1.35
2022-12-08T18:05:18.429Z,1.36
2022-12-08T18:06:25.693Z,1.40
2022-12-08T18:07:31.872Z,1.41
2022-12-08T18:08:35.796Z,1.41
2022-12-08T18:09:39.480Z,1.40
2022-12-08T18:10:47.129Z,1.42
2022-12-08T18:11:50.223Z,1.43
2022-12-08T18:12:53.579Z,1.42
2022-12-08T18:13:57.328Z,1.44
2022-12-08T18:15:00.885Z,1.42
2022-12-08T18:16:06.432Z,1.41
2022-12-08T18:17:09.885Z,1.42
2022-12-08T18:18:13.982Z,1.42
2022-12-08T18:19:16.996Z,1.40
2022-12-08T18:20:19.930Z,1.43
2022-12-08T18:21:23.726Z,1.43
2022-12-08T18:22:27.136Z,1.41
2022-12-08T18:23:30.539Z,1.40
2022-12-08T18:24:33.257Z,1.40
2022-12-08T18:25:36.879Z,1.39
2022-12-08T18:26:40.470Z,1.37
2022-12-08T18:27:44.296Z,1.37
2022-12-08T18:28:47.608Z,1.39
2022-12-08T18:29:51.876Z,1.38
2022-12-08T18:30:55.935Z,1.39
2022-12-08T18:31:59.408Z,1.37
2022-12-08T18:33:09.150Z,1.38
2022-12-08T18:34:13.462Z,1.40
2022-12-08T18:35:17.322Z,1.39
2022-12-08T18:36:24.827Z,1.39
2022-12-08T18:37:28.240Z,1.39
2022-12-08T18:38:32.332Z,1.40
2022-12-08T18:39:36.597Z,1.39
2022-12-08T18:40:40.338Z,1.39
2022-12-08T18:41:43.844Z,1.38
2022-12-08T18:42:47.880Z,1.38
2022-12-08T18:43:53.844Z,1.39
2022-12-08T18:45:05.688Z,1.39
2022-12-08T18:46:12.109Z,1.40
2022-12-08T18:47:16.049Z,1.41
2022-12-08T18:48:20.728Z,1.42
2022-12-08T18:49:24.245Z,1.41
2022-12-08T18:50:28.151Z,1.43
2022-12-08T18:51:31.536Z,1.43
2022-12-08T18:52:35.690Z,1.42
2022-12-08T18:53:41.881Z,1.41
2022-12-08T18:55:10.192Z,1.41
2022-12-08T18:56:27.807Z,1.39
2022-12-08T18:57:31.123Z,1.38
2022-12-08T18:58:36.364Z,1.39
2022-12-08T18:59:41.061Z,1.40
2022-12-08T19:00:44.925Z,1.41
2022-12-08T19:01:49.162Z,1.41
2022-12-08T19:02:52.830Z,1.41
2022-12-08T19:05:26.397Z,1.40
2022-12-08T19:06:30.996Z,1.38
2022-12-08T19:07:35.521Z,1.36
2022-12-08T19:08:43.742Z,1.36
2022-12-08T19:09:47.180Z,1.35
2022-12-08T19:10:50.937Z,1.33
2022-12-08T19:11:54.719Z,1.31
2022-12-08T19:12:58.332Z,1.30
2022-12-08T19:14:03.464Z,1.27
2022-12-08T19:15:09.189Z,1.28
2022-12-08T19:16:14.634Z,1.26
2022-12-08T19:17:18.409Z,0.96
2022-12-08T19:18:23.729Z,1.27
2022-12-08T19:19:28.954Z,1.27
2022-12-08T19:20:32.355Z,1.27
2022-12-08T19:21:41.392Z,1.29
2022-12-08T19:22:48.992Z,1.31
2022-12-08T19:23:58.799Z,1.31
2022-12-08T19:25:02.827Z,1.33
2022-12-08T19:26:07.684Z,1.34
2022-12-08T19:27:14.667Z,1.38
2022-12-08T19:28:21.352Z,1.42
2022-12-08T19:29:25.949Z,1.42
2022-12-08T19:30:29.825Z,1.43
2022-12-08T19:31:35.040Z,1.43
2022-12-08T19:32:38.381Z,1.44
2022-12-08T19:33:42.262Z,1.44
2022-12-08T19:34:46.589Z,1.43
2022-12-08T19:35:53.095Z,1.43
2022-12-08T19:37:06.577Z,1.43
2022-12-08T19:38:10.341Z,1.42
2022-12-08T19:39:41.711Z,1.43